sensor_id;sensor_type;location;lat;lon;timestamp;P1;durP1;ratioP1;P2;durP2;ratioP2
5811;SDS011;2932;52.400;9.558;2023-06-24T00:01:22;8.50;;;3.92;;
5811;SDS011;2932;52.400;9.558;2023-06-24T00:03:48;6.57;;;3.78;;
5811;SDS011;2932;52.400;9.558;2023-06-24T00:06:18;7.03;;;3.70;;
5811;SDS011;2932;52.400;9.558;2023-06-24T00:08:44;7.13;;;3.78;;
5811;SDS011;2932;52.400;9.558;2023-06-24T00:11:12;6.72;;;3.88;;
5811;SDS011;2932;52.400;9.558;2023-06-24T00:13:39;7.10;;;3.72;;
5811;SDS011;2932;52.400;9.558;2023-06-24T00:16:04;6.78;;;3.80;;
5811;SDS011;2932;52.400;9.558;2023-06-24T00:18:31;6.13;;;3.75;;
5811;SDS011;2932;52.400;9.558;2023-06-24T00:20:57;5.35;;;3.47;;
5811;SDS011;2932;52.400;9.558;2023-06-24T00:23:22;8.80;;;3.55;;
5811;SDS011;2932;52.400;9.558;2023-06-24T00:25:54;5.60;;;3.30;;
5811;SDS011;2932;52.400;9.558;2023-06-24T00:28:20;4.43;;;3.45;;
5811;SDS011;2932;52.400;9.558;2023-06-24T00:30:47;6.22;;;4.03;;
5811;SDS011;2932;52.400;9.558;2023-06-24T00:33:12;5.22;;;3.60;;
5811;SDS011;2932;52.400;9.558;2023-06-24T00:35:39;6.78;;;3.88;;
5811;SDS011;2932;52.400;9.558;2023-06-24T00:38:04;7.20;;;3.90;;
5811;SDS011;2932;52.400;9.558;2023-06-24T00:40:30;8.82;;;3.90;;
5811;SDS011;2932;52.400;9.558;2023-06-24T00:42:55;5.60;;;4.07;;
5811;SDS011;2932;52.400;9.558;2023-06-24T00:45:24;4.85;;;3.40;;
5811;SDS011;2932;52.400;9.558;2023-06-24T00:47:50;8.57;;;4.05;;
5811;SDS011;2932;52.400;9.558;2023-06-24T00:50:16;6.13;;;4.95;;
5811;SDS011;2932;52.400;9.558;2023-06-24T00:52:42;8.35;;;4.10;;
5811;SDS011;2932;52.400;9.558;2023-06-24T00:55:11;5.72;;;4.43;;
5811;SDS011;2932;52.400;9.558;2023-06-24T00:57:39;6.07;;;4.00;;
5811;SDS011;2932;52.400;9.558;2023-06-24T01:00:06;6.70;;;4.40;;
5811;SDS011;2932;52.400;9.558;2023-06-24T01:02:39;8.75;;;4.10;;
5811;SDS011;2932;52.400;9.558;2023-06-24T01:05:07;7.95;;;4.57;;
5811;SDS011;2932;52.400;9.558;2023-06-24T01:07:33;5.55;;;3.80;;
5811;SDS011;2932;52.400;9.558;2023-06-24T01:10:01;8.90;;;4.18;;
5811;SDS011;2932;52.400;9.558;2023-06-24T01:12:27;8.57;;;4.78;;
5811;SDS011;2932;52.400;9.558;2023-06-24T01:14:53;7.18;;;4.25;;
5811;SDS011;2932;52.400;9.558;2023-06-24T01:17:24;7.38;;;4.25;;
5811;SDS011;2932;52.400;9.558;2023-06-24T01:20:11;5.75;;;3.95;;
5811;SDS011;2932;52.400;9.558;2023-06-24T01:33:54;5.07;;;3.80;;
5811;SDS011;2932;52.400;9.558;2023-06-24T01:36:26;7.55;;;3.65;;
5811;SDS011;2932;52.400;9.558;2023-06-24T01:39:12;6.82;;;4.40;;
5811;SDS011;2932;52.400;9.558;2023-06-24T01:41:44;8.50;;;4.65;;
5811;SDS011;2932;52.400;9.558;2023-06-24T01:44:27;7.18;;;4.97;;
5811;SDS011;2932;52.400;9.558;2023-06-24T01:46:54;8.73;;;4.20;;
5811;SDS011;2932;52.400;9.558;2023-06-24T01:49:23;7.53;;;4.28;;
5811;SDS011;2932;52.400;9.558;2023-06-24T01:51:53;5.57;;;4.05;;
5811;SDS011;2932;52.400;9.558;2023-06-24T01:54:22;7.20;;;4.28;;
5811;SDS011;2932;52.400;9.558;2023-06-24T01:56:51;6.30;;;4.05;;
5811;SDS011;2932;52.400;9.558;2023-06-24T01:59:19;8.23;;;4.93;;
5811;SDS011;2932;52.400;9.558;2023-06-24T02:01:46;7.63;;;4.22;;
5811;SDS011;2932;52.400;9.558;2023-06-24T02:04:12;5.57;;;4.38;;
5811;SDS011;2932;52.400;9.558;2023-06-24T02:06:38;6.03;;;4.55;;
5811;SDS011;2932;52.400;9.558;2023-06-24T02:09:05;7.40;;;4.20;;
5811;SDS011;2932;52.400;9.558;2023-06-24T02:11:33;6.22;;;4.95;;
5811;SDS011;2932;52.400;9.558;2023-06-24T02:14:00;5.28;;;4.40;;
5811;SDS011;2932;52.400;9.558;2023-06-24T02:16:28;6.15;;;4.43;;
5811;SDS011;2932;52.400;9.558;2023-06-24T02:18:55;5.13;;;3.97;;
5811;SDS011;2932;52.400;9.558;2023-06-24T02:21:21;5.13;;;3.90;;
5811;SDS011;2932;52.400;9.558;2023-06-24T02:23:48;6.97;;;4.20;;
5811;SDS011;2932;52.400;9.558;2023-06-24T02:26:15;9.52;;;5.00;;
5811;SDS011;2932;52.400;9.558;2023-06-24T02:28:41;5.50;;;4.45;;
5811;SDS011;2932;52.400;9.558;2023-06-24T02:31:09;6.32;;;4.78;;
5811;SDS011;2932;52.400;9.558;2023-06-24T02:33:36;11.13;;;5.10;;
5811;SDS011;2932;52.400;9.558;2023-06-24T02:36:01;6.25;;;4.50;;
5811;SDS011;2932;52.400;9.558;2023-06-24T02:38:27;4.60;;;3.97;;
5811;SDS011;2932;52.400;9.558;2023-06-24T02:40:52;7.10;;;4.82;;
5811;SDS011;2932;52.400;9.558;2023-06-24T02:43:18;11.70;;;4.65;;
5811;SDS011;2932;52.400;9.558;2023-06-24T02:45:44;6.13;;;4.80;;
5811;SDS011;2932;52.400;9.558;2023-06-24T02:48:10;8.45;;;4.90;;
5811;SDS011;2932;52.400;9.558;2023-06-24T02:50:38;6.93;;;5.05;;
5811;SDS011;2932;52.400;9.558;2023-06-24T02:53:05;8.60;;;5.03;;
5811;SDS011;2932;52.400;9.558;2023-06-24T02:55:32;10.43;;;5.22;;
5811;SDS011;2932;52.400;9.558;2023-06-24T02:57:58;7.80;;;5.13;;
5811;SDS011;2932;52.400;9.558;2023-06-24T03:00:24;9.80;;;5.13;;
5811;SDS011;2932;52.400;9.558;2023-06-24T03:02:50;9.05;;;5.35;;
5811;SDS011;2932;52.400;9.558;2023-06-24T03:05:16;7.57;;;4.85;;
5811;SDS011;2932;52.400;9.558;2023-06-24T03:07:43;8.23;;;4.97;;
5811;SDS011;2932;52.400;9.558;2023-06-24T03:10:10;5.68;;;4.80;;
5811;SDS011;2932;52.400;9.558;2023-06-24T03:12:35;6.82;;;4.45;;
5811;SDS011;2932;52.400;9.558;2023-06-24T03:15:01;5.80;;;4.80;;
5811;SDS011;2932;52.400;9.558;2023-06-24T03:17:27;5.82;;;4.80;;
5811;SDS011;2932;52.400;9.558;2023-06-24T03:19:52;5.60;;;4.80;;
5811;SDS011;2932;52.400;9.558;2023-06-24T03:22:17;4.90;;;3.80;;
5811;SDS011;2932;52.400;9.558;2023-06-24T03:24:43;5.57;;;4.90;;
5811;SDS011;2932;52.400;9.558;2023-06-24T03:27:09;5.45;;;4.25;;
5811;SDS011;2932;52.400;9.558;2023-06-24T03:29:37;7.53;;;4.20;;
5811;SDS011;2932;52.400;9.558;2023-06-24T03:32:02;6.78;;;4.82;;
5811;SDS011;2932;52.400;9.558;2023-06-24T03:34:28;6.93;;;4.65;;
5811;SDS011;2932;52.400;9.558;2023-06-24T03:36:53;6.60;;;4.80;;
5811;SDS011;2932;52.400;9.558;2023-06-24T03:39:19;11.80;;;5.03;;
5811;SDS011;2932;52.400;9.558;2023-06-24T03:41:45;8.00;;;5.03;;
5811;SDS011;2932;52.400;9.558;2023-06-24T03:44:11;7.75;;;4.32;;
5811;SDS011;2932;52.400;9.558;2023-06-24T03:46:36;7.10;;;4.50;;
5811;SDS011;2932;52.400;9.558;2023-06-24T03:49:01;6.18;;;4.53;;
5811;SDS011;2932;52.400;9.558;2023-06-24T03:51:27;8.13;;;5.03;;
5811;SDS011;2932;52.400;9.558;2023-06-24T03:53:52;6.22;;;4.93;;
5811;SDS011;2932;52.400;9.558;2023-06-24T03:56:17;6.55;;;5.03;;
5811;SDS011;2932;52.400;9.558;2023-06-24T03:58:43;5.95;;;4.72;;
5811;SDS011;2932;52.400;9.558;2023-06-24T04:01:08;5.68;;;4.55;;
5811;SDS011;2932;52.400;9.558;2023-06-24T04:03:34;6.28;;;5.28;;
5811;SDS011;2932;52.400;9.558;2023-06-24T04:06:00;7.60;;;5.45;;
5811;SDS011;2932;52.400;9.558;2023-06-24T04:08:28;8.43;;;5.28;;
5811;SDS011;2932;52.400;9.558;2023-06-24T04:10:59;9.70;;;5.25;;
5811;SDS011;2932;52.400;9.558;2023-06-24T04:13:31;7.60;;;5.18;;
5811;SDS011;2932;52.400;9.558;2023-06-24T04:15:57;8.02;;;5.30;;
5811;SDS011;2932;52.400;9.558;2023-06-24T04:18:22;6.15;;;4.38;;
5811;SDS011;2932;52.400;9.558;2023-06-24T04:20:47;7.43;;;5.07;;
5811;SDS011;2932;52.400;9.558;2023-06-24T04:23:13;6.55;;;4.90;;
5811;SDS011;2932;52.400;9.558;2023-06-24T04:25:39;5.95;;;4.97;;
5811;SDS011;2932;52.400;9.558;2023-06-24T04:28:05;7.50;;;4.90;;
5811;SDS011;2932;52.400;9.558;2023-06-24T04:30:31;6.97;;;4.88;;
5811;SDS011;2932;52.400;9.558;2023-06-24T04:33:05;8.25;;;4.40;;
5811;SDS011;2932;52.400;9.558;2023-06-24T04:35:31;6.38;;;4.70;;
5811;SDS011;2932;52.400;9.558;2023-06-24T04:37:56;8.57;;;4.68;;
5811;SDS011;2932;52.400;9.558;2023-06-24T04:40:22;8.32;;;5.03;;
5811;SDS011;2932;52.400;9.558;2023-06-24T04:42:47;6.97;;;4.85;;
5811;SDS011;2932;52.400;9.558;2023-06-24T04:45:12;6.95;;;4.60;;
5811;SDS011;2932;52.400;9.558;2023-06-24T04:47:38;11.13;;;5.10;;
5811;SDS011;2932;52.400;9.558;2023-06-24T04:50:04;6.88;;;4.32;;
5811;SDS011;2932;52.400;9.558;2023-06-24T04:52:29;8.18;;;5.00;;
5811;SDS011;2932;52.400;9.558;2023-06-24T04:54:55;7.88;;;4.82;;
5811;SDS011;2932;52.400;9.558;2023-06-24T04:57:38;8.80;;;4.88;;
5811;SDS011;2932;52.400;9.558;2023-06-24T05:00:03;8.43;;;5.05;;
5811;SDS011;2932;52.400;9.558;2023-06-24T05:02:29;7.60;;;4.30;;
5811;SDS011;2932;52.400;9.558;2023-06-24T05:04:55;7.03;;;4.43;;
5811;SDS011;2932;52.400;9.558;2023-06-24T05:07:20;8.63;;;4.90;;
5811;SDS011;2932;52.400;9.558;2023-06-24T05:09:48;7.43;;;5.05;;
5811;SDS011;2932;52.400;9.558;2023-06-24T05:12:16;7.20;;;4.78;;
5811;SDS011;2932;52.400;9.558;2023-06-24T05:14:41;5.55;;;4.70;;
5811;SDS011;2932;52.400;9.558;2023-06-24T05:17:06;7.53;;;4.55;;
5811;SDS011;2932;52.400;9.558;2023-06-24T05:19:32;5.55;;;4.35;;
5811;SDS011;2932;52.400;9.558;2023-06-24T05:21:58;8.77;;;4.72;;
5811;SDS011;2932;52.400;9.558;2023-06-24T05:24:23;5.43;;;4.20;;
5811;SDS011;2932;52.400;9.558;2023-06-24T05:26:49;10.77;;;5.60;;
5811;SDS011;2932;52.400;9.558;2023-06-24T05:29:16;10.02;;;4.70;;
5811;SDS011;2932;52.400;9.558;2023-06-24T05:31:42;8.77;;;4.70;;
5811;SDS011;2932;52.400;9.558;2023-06-24T05:34:08;6.32;;;5.05;;
5811;SDS011;2932;52.400;9.558;2023-06-24T05:36:33;7.82;;;5.38;;
5811;SDS011;2932;52.400;9.558;2023-06-24T05:38:59;7.22;;;4.70;;
5811;SDS011;2932;52.400;9.558;2023-06-24T05:41:24;9.07;;;5.13;;
5811;SDS011;2932;52.400;9.558;2023-06-24T05:43:59;8.85;;;5.13;;
5811;SDS011;2932;52.400;9.558;2023-06-24T05:46:26;10.80;;;5.22;;
5811;SDS011;2932;52.400;9.558;2023-06-24T05:48:52;7.10;;;4.82;;
5811;SDS011;2932;52.400;9.558;2023-06-24T05:51:17;13.45;;;5.75;;
5811;SDS011;2932;52.400;9.558;2023-06-24T05:53:42;10.23;;;5.20;;
5811;SDS011;2932;52.400;9.558;2023-06-24T05:56:08;7.13;;;5.10;;
5811;SDS011;2932;52.400;9.558;2023-06-24T05:58:33;8.77;;;5.50;;
5811;SDS011;2932;52.400;9.558;2023-06-24T06:00:58;6.93;;;5.45;;
5811;SDS011;2932;52.400;9.558;2023-06-24T06:03:26;8.32;;;5.30;;
5811;SDS011;2932;52.400;9.558;2023-06-24T06:05:51;11.88;;;5.30;;
5811;SDS011;2932;52.400;9.558;2023-06-24T06:08:16;8.45;;;5.90;;
5811;SDS011;2932;52.400;9.558;2023-06-24T06:10:44;11.63;;;5.70;;
5811;SDS011;2932;52.400;9.558;2023-06-24T06:13:10;9.90;;;6.03;;
5811;SDS011;2932;52.400;9.558;2023-06-24T06:15:35;6.18;;;5.57;;
5811;SDS011;2932;52.400;9.558;2023-06-24T06:18:03;7.97;;;5.78;;
5811;SDS011;2932;52.400;9.558;2023-06-24T06:20:29;9.40;;;6.50;;
5811;SDS011;2932;52.400;9.558;2023-06-24T06:22:54;9.13;;;5.65;;
5811;SDS011;2932;52.400;9.558;2023-06-24T06:25:19;6.10;;;5.25;;
5811;SDS011;2932;52.400;9.558;2023-06-24T06:27:45;5.55;;;5.05;;
5811;SDS011;2932;52.400;9.558;2023-06-24T06:30:10;6.55;;;5.40;;
5811;SDS011;2932;52.400;9.558;2023-06-24T06:32:36;8.68;;;5.88;;
5811;SDS011;2932;52.400;9.558;2023-06-24T06:35:01;8.48;;;5.00;;
5811;SDS011;2932;52.400;9.558;2023-06-24T06:37:27;7.57;;;5.85;;
5811;SDS011;2932;52.400;9.558;2023-06-24T06:39:52;8.07;;;4.97;;
5811;SDS011;2932;52.400;9.558;2023-06-24T06:42:18;8.48;;;5.65;;
5811;SDS011;2932;52.400;9.558;2023-06-24T06:44:43;7.20;;;4.97;;
5811;SDS011;2932;52.400;9.558;2023-06-24T06:47:09;5.05;;;4.55;;
5811;SDS011;2932;52.400;9.558;2023-06-24T06:49:35;6.28;;;4.38;;
5811;SDS011;2932;52.400;9.558;2023-06-24T06:52:03;4.93;;;3.97;;
5811;SDS011;2932;52.400;9.558;2023-06-24T06:54:29;7.10;;;4.82;;
5811;SDS011;2932;52.400;9.558;2023-06-24T06:56:54;7.93;;;4.68;;
5811;SDS011;2932;52.400;9.558;2023-06-24T06:59:20;6.70;;;4.15;;
5811;SDS011;2932;52.400;9.558;2023-06-24T07:01:46;5.63;;;4.30;;
5811;SDS011;2932;52.400;9.558;2023-06-24T07:04:11;5.53;;;4.38;;
5811;SDS011;2932;52.400;9.558;2023-06-24T07:06:36;6.28;;;4.55;;
5811;SDS011;2932;52.400;9.558;2023-06-24T07:09:02;5.40;;;3.75;;
5811;SDS011;2932;52.400;9.558;2023-06-24T07:11:27;5.75;;;4.40;;
5811;SDS011;2932;52.400;9.558;2023-06-24T07:13:52;6.32;;;3.80;;
5811;SDS011;2932;52.400;9.558;2023-06-24T07:16:18;6.13;;;4.03;;
5811;SDS011;2932;52.400;9.558;2023-06-24T07:18:43;6.30;;;3.75;;
5811;SDS011;2932;52.400;9.558;2023-06-24T07:21:09;4.13;;;3.60;;
5811;SDS011;2932;52.400;9.558;2023-06-24T07:23:34;4.18;;;3.78;;
5811;SDS011;2932;52.400;9.558;2023-06-24T07:25:59;4.43;;;3.30;;
5811;SDS011;2932;52.400;9.558;2023-06-24T07:28:24;4.68;;;3.50;;
5811;SDS011;2932;52.400;9.558;2023-06-24T07:30:50;5.43;;;3.15;;
5811;SDS011;2932;52.400;9.558;2023-06-24T07:33:15;5.05;;;3.38;;
5811;SDS011;2932;52.400;9.558;2023-06-24T07:35:40;4.32;;;3.03;;
5811;SDS011;2932;52.400;9.558;2023-06-24T07:38:06;3.72;;;3.13;;
5811;SDS011;2932;52.400;9.558;2023-06-24T07:40:31;3.10;;;2.70;;
5811;SDS011;2932;52.400;9.558;2023-06-24T07:42:56;3.58;;;2.92;;
5811;SDS011;2932;52.400;9.558;2023-06-24T07:45:22;3.53;;;2.78;;
5811;SDS011;2932;52.400;9.558;2023-06-24T07:47:48;6.57;;;3.00;;
5811;SDS011;2932;52.400;9.558;2023-06-24T07:50:13;3.50;;;3.20;;
5811;SDS011;2932;52.400;9.558;2023-06-24T07:52:38;6.18;;;3.30;;
5811;SDS011;2932;52.400;9.558;2023-06-24T07:55:04;3.97;;;3.13;;
5811;SDS011;2932;52.400;9.558;2023-06-24T07:57:32;8.00;;;3.10;;
5811;SDS011;2932;52.400;9.558;2023-06-24T07:59:58;7.68;;;3.38;;
5811;SDS011;2932;52.400;9.558;2023-06-24T08:02:23;3.80;;;2.92;;
5811;SDS011;2932;52.400;9.558;2023-06-24T08:04:52;4.80;;;3.00;;
5811;SDS011;2932;52.400;9.558;2023-06-24T08:07:17;3.58;;;3.17;;
5811;SDS011;2932;52.400;9.558;2023-06-24T08:09:42;3.70;;;3.00;;
5811;SDS011;2932;52.400;9.558;2023-06-24T08:12:08;3.65;;;2.67;;
5811;SDS011;2932;52.400;9.558;2023-06-24T08:14:34;2.72;;;2.50;;
5811;SDS011;2932;52.400;9.558;2023-06-24T08:17:00;4.22;;;2.75;;
5811;SDS011;2932;52.400;9.558;2023-06-24T08:19:25;2.75;;;2.55;;
5811;SDS011;2932;52.400;9.558;2023-06-24T08:21:50;3.55;;;2.20;;
5811;SDS011;2932;52.400;9.558;2023-06-24T08:24:16;3.03;;;2.50;;
5811;SDS011;2932;52.400;9.558;2023-06-24T08:26:41;3.70;;;2.75;;
5811;SDS011;2932;52.400;9.558;2023-06-24T08:29:06;3.85;;;2.40;;
5811;SDS011;2932;52.400;9.558;2023-06-24T08:31:32;2.67;;;2.40;;
5811;SDS011;2932;52.400;9.558;2023-06-24T08:34:01;4.38;;;2.80;;
5811;SDS011;2932;52.400;9.558;2023-06-24T08:36:31;2.65;;;2.45;;
5811;SDS011;2932;52.400;9.558;2023-06-24T08:38:57;4.63;;;2.40;;
5811;SDS011;2932;52.400;9.558;2023-06-24T08:41:23;4.80;;;3.30;;
5811;SDS011;2932;52.400;9.558;2023-06-24T08:43:52;4.82;;;2.78;;
5811;SDS011;2932;52.400;9.558;2023-06-24T08:46:19;3.33;;;2.55;;
5811;SDS011;2932;52.400;9.558;2023-06-24T08:48:45;2.78;;;2.28;;
5811;SDS011;2932;52.400;9.558;2023-06-24T08:51:13;4.07;;;2.65;;
5811;SDS011;2932;52.400;9.558;2023-06-24T08:53:43;3.28;;;2.97;;
5811;SDS011;2932;52.400;9.558;2023-06-24T08:56:09;3.35;;;2.85;;
5811;SDS011;2932;52.400;9.558;2023-06-24T08:58:35;5.60;;;3.35;;
5811;SDS011;2932;52.400;9.558;2023-06-24T09:01:01;4.32;;;3.08;;
5811;SDS011;2932;52.400;9.558;2023-06-24T09:03:27;3.67;;;3.33;;
5811;SDS011;2932;52.400;9.558;2023-06-24T09:05:52;3.33;;;2.72;;
5811;SDS011;2932;52.400;9.558;2023-06-24T09:08:18;3.75;;;3.20;;
5811;SDS011;2932;52.400;9.558;2023-06-24T09:10:43;3.70;;;3.03;;
5811;SDS011;2932;52.400;9.558;2023-06-24T09:13:09;6.53;;;3.33;;
5811;SDS011;2932;52.400;9.558;2023-06-24T09:15:35;3.65;;;3.35;;
5811;SDS011;2932;52.400;9.558;2023-06-24T09:18:02;3.33;;;3.10;;
5811;SDS011;2932;52.400;9.558;2023-06-24T09:20:28;4.32;;;3.38;;
5811;SDS011;2932;52.400;9.558;2023-06-24T09:23:02;5.40;;;3.40;;
5811;SDS011;2932;52.400;9.558;2023-06-24T09:25:28;3.65;;;2.83;;
5811;SDS011;2932;52.400;9.558;2023-06-24T09:27:54;6.45;;;3.28;;
5811;SDS011;2932;52.400;9.558;2023-06-24T09:30:29;4.25;;;3.15;;
5811;SDS011;2932;52.400;9.558;2023-06-24T09:35:36;3.22;;;2.80;;
5811;SDS011;2932;52.400;9.558;2023-06-24T09:38:02;7.03;;;3.58;;
5811;SDS011;2932;52.400;9.558;2023-06-24T09:40:27;3.50;;;2.97;;
5811;SDS011;2932;52.400;9.558;2023-06-24T09:42:58;4.53;;;3.58;;
5811;SDS011;2932;52.400;9.558;2023-06-24T09:45:26;4.78;;;3.65;;
5811;SDS011;2932;52.400;9.558;2023-06-24T09:47:53;3.60;;;2.78;;
5811;SDS011;2932;52.400;9.558;2023-06-24T09:50:19;3.20;;;2.72;;
5811;SDS011;2932;52.400;9.558;2023-06-24T09:52:45;3.10;;;2.90;;
5811;SDS011;2932;52.400;9.558;2023-06-24T09:55:12;4.32;;;3.15;;
5811;SDS011;2932;52.400;9.558;2023-06-24T09:57:39;4.97;;;3.00;;
5811;SDS011;2932;52.400;9.558;2023-06-24T10:00:08;3.90;;;3.00;;
5811;SDS011;2932;52.400;9.558;2023-06-24T10:02:35;3.70;;;3.20;;
5811;SDS011;2932;52.400;9.558;2023-06-24T10:05:01;3.50;;;2.90;;
5811;SDS011;2932;52.400;9.558;2023-06-24T10:07:27;4.60;;;3.03;;
5811;SDS011;2932;52.400;9.558;2023-06-24T10:09:53;3.28;;;2.97;;
5811;SDS011;2932;52.400;9.558;2023-06-24T10:12:19;3.45;;;3.00;;
5811;SDS011;2932;52.400;9.558;2023-06-24T10:14:45;3.33;;;3.03;;
5811;SDS011;2932;52.400;9.558;2023-06-24T10:17:11;3.72;;;3.00;;
5811;SDS011;2932;52.400;9.558;2023-06-24T10:19:40;3.83;;;2.85;;
5811;SDS011;2932;52.400;9.558;2023-06-24T10:22:10;2.70;;;2.50;;
5811;SDS011;2932;52.400;9.558;2023-06-24T10:24:36;3.20;;;2.33;;
5811;SDS011;2932;52.400;9.558;2023-06-24T10:29:49;3.28;;;2.45;;
5811;SDS011;2932;52.400;9.558;2023-06-24T10:32:18;3.00;;;2.30;;
5811;SDS011;2932;52.400;9.558;2023-06-24T10:34:46;2.72;;;2.50;;
5811;SDS011;2932;52.400;9.558;2023-06-24T10:37:19;4.40;;;2.85;;
5811;SDS011;2932;52.400;9.558;2023-06-24T10:39:47;3.70;;;2.60;;
5811;SDS011;2932;52.400;9.558;2023-06-24T10:44:51;2.72;;;2.53;;
5811;SDS011;2932;52.400;9.558;2023-06-24T10:47:18;5.47;;;2.90;;
5811;SDS011;2932;52.400;9.558;2023-06-24T10:49:43;3.60;;;2.65;;
5811;SDS011;2932;52.400;9.558;2023-06-24T10:52:09;2.97;;;2.72;;
5811;SDS011;2932;52.400;9.558;2023-06-24T10:54:36;3.20;;;2.90;;
5811;SDS011;2932;52.400;9.558;2023-06-24T10:57:03;3.67;;;2.65;;
5811;SDS011;2932;52.400;9.558;2023-06-24T10:59:35;3.00;;;2.67;;
5811;SDS011;2932;52.400;9.558;2023-06-24T11:02:04;2.70;;;2.50;;
5811;SDS011;2932;52.400;9.558;2023-06-24T11:04:30;3.28;;;2.83;;
5811;SDS011;2932;52.400;9.558;2023-06-24T11:06:58;3.22;;;2.85;;
5811;SDS011;2932;52.400;9.558;2023-06-24T11:09:24;3.90;;;2.70;;
5811;SDS011;2932;52.400;9.558;2023-06-24T11:11:49;5.68;;;2.92;;
5811;SDS011;2932;52.400;9.558;2023-06-24T11:14:15;5.03;;;3.28;;
5811;SDS011;2932;52.400;9.558;2023-06-24T11:16:41;3.53;;;3.13;;
5811;SDS011;2932;52.400;9.558;2023-06-24T11:19:06;6.80;;;3.40;;
5811;SDS011;2932;52.400;9.558;2023-06-24T11:21:31;4.70;;;3.13;;
5811;SDS011;2932;52.400;9.558;2023-06-24T11:24:00;4.32;;;3.15;;
5811;SDS011;2932;52.400;9.558;2023-06-24T11:26:26;3.50;;;3.20;;
5811;SDS011;2932;52.400;9.558;2023-06-24T11:28:52;3.40;;;2.90;;
5811;SDS011;2932;52.400;9.558;2023-06-24T11:31:18;3.47;;;2.97;;
5811;SDS011;2932;52.400;9.558;2023-06-24T11:33:47;5.32;;;3.17;;
5811;SDS011;2932;52.400;9.558;2023-06-24T11:36:16;5.20;;;3.80;;
5811;SDS011;2932;52.400;9.558;2023-06-24T11:38:42;5.00;;;3.30;;
5811;SDS011;2932;52.400;9.558;2023-06-24T11:41:08;4.50;;;3.17;;
5811;SDS011;2932;52.400;9.558;2023-06-24T11:43:33;6.05;;;3.38;;
5811;SDS011;2932;52.400;9.558;2023-06-24T11:45:59;3.85;;;3.10;;
5811;SDS011;2932;52.400;9.558;2023-06-24T11:48:30;4.63;;;3.28;;
5811;SDS011;2932;52.400;9.558;2023-06-24T11:51:04;5.13;;;3.35;;
5811;SDS011;2932;52.400;9.558;2023-06-24T11:53:40;4.65;;;2.75;;
5811;SDS011;2932;52.400;9.558;2023-06-24T11:56:10;3.55;;;3.13;;
5811;SDS011;2932;52.400;9.558;2023-06-24T11:58:36;3.78;;;3.38;;
5811;SDS011;2932;52.400;9.558;2023-06-24T12:01:02;3.85;;;3.45;;
5811;SDS011;2932;52.400;9.558;2023-06-24T12:03:28;4.82;;;3.60;;
5811;SDS011;2932;52.400;9.558;2023-06-24T12:05:54;3.63;;;3.33;;
5811;SDS011;2932;52.400;9.558;2023-06-24T12:08:19;4.88;;;3.22;;
5811;SDS011;2932;52.400;9.558;2023-06-24T12:10:45;4.10;;;3.45;;
5811;SDS011;2932;52.400;9.558;2023-06-24T12:13:10;3.55;;;3.25;;
5811;SDS011;2932;52.400;9.558;2023-06-24T12:15:36;6.10;;;3.60;;
5811;SDS011;2932;52.400;9.558;2023-06-24T12:18:02;4.82;;;3.67;;
5811;SDS011;2932;52.400;9.558;2023-06-24T12:20:28;5.22;;;3.50;;
5811;SDS011;2932;52.400;9.558;2023-06-24T12:22:54;4.07;;;3.30;;
5811;SDS011;2932;52.400;9.558;2023-06-24T12:25:20;3.65;;;3.22;;
5811;SDS011;2932;52.400;9.558;2023-06-24T12:27:46;6.60;;;3.33;;
5811;SDS011;2932;52.400;9.558;2023-06-24T12:30:12;4.03;;;3.53;;
5811;SDS011;2932;52.400;9.558;2023-06-24T12:32:38;5.78;;;3.58;;
5811;SDS011;2932;52.400;9.558;2023-06-24T12:35:03;4.15;;;2.88;;
5811;SDS011;2932;52.400;9.558;2023-06-24T12:37:30;4.05;;;3.35;;
5811;SDS011;2932;52.400;9.558;2023-06-24T12:39:57;3.40;;;3.10;;
5811;SDS011;2932;52.400;9.558;2023-06-24T12:42:22;4.22;;;3.40;;
5811;SDS011;2932;52.400;9.558;2023-06-24T12:44:47;5.78;;;3.35;;
5811;SDS011;2932;52.400;9.558;2023-06-24T12:47:13;3.40;;;3.10;;
5811;SDS011;2932;52.400;9.558;2023-06-24T12:49:38;3.38;;;3.10;;
5811;SDS011;2932;52.400;9.558;2023-06-24T12:52:03;3.33;;;3.03;;
5811;SDS011;2932;52.400;9.558;2023-06-24T12:54:29;4.57;;;3.00;;
5811;SDS011;2932;52.400;9.558;2023-06-24T12:56:54;3.40;;;3.10;;
5811;SDS011;2932;52.400;9.558;2023-06-24T12:59:19;5.05;;;2.97;;
5811;SDS011;2932;52.400;9.558;2023-06-24T13:01:44;3.88;;;3.40;;
5811;SDS011;2932;52.400;9.558;2023-06-24T13:04:13;3.75;;;3.05;;
5811;SDS011;2932;52.400;9.558;2023-06-24T13:06:38;3.53;;;2.80;;
5811;SDS011;2932;52.400;9.558;2023-06-24T13:09:04;5.70;;;3.10;;
5811;SDS011;2932;52.400;9.558;2023-06-24T13:11:30;3.30;;;3.00;;
5811;SDS011;2932;52.400;9.558;2023-06-24T13:13:55;7.40;;;3.20;;
5811;SDS011;2932;52.400;9.558;2023-06-24T13:16:20;3.88;;;3.50;;
5811;SDS011;2932;52.400;9.558;2023-06-24T13:18:46;3.85;;;3.20;;
5811;SDS011;2932;52.400;9.558;2023-06-24T13:21:11;3.50;;;3.15;;
5811;SDS011;2932;52.400;9.558;2023-06-24T13:23:37;4.25;;;3.05;;
5811;SDS011;2932;52.400;9.558;2023-06-24T13:26:03;3.65;;;3.10;;
5811;SDS011;2932;52.400;9.558;2023-06-24T13:28:29;4.60;;;3.45;;
5811;SDS011;2932;52.400;9.558;2023-06-24T13:30:54;4.10;;;3.15;;
5811;SDS011;2932;52.400;9.558;2023-06-24T13:33:20;4.80;;;3.50;;
5811;SDS011;2932;52.400;9.558;2023-06-24T13:35:45;4.97;;;2.95;;
5811;SDS011;2932;52.400;9.558;2023-06-24T13:38:11;3.47;;;3.17;;
5811;SDS011;2932;52.400;9.558;2023-06-24T13:40:37;4.22;;;2.97;;
5811;SDS011;2932;52.400;9.558;2023-06-24T13:43:02;3.40;;;2.97;;
5811;SDS011;2932;52.400;9.558;2023-06-24T13:45:28;3.58;;;3.20;;
5811;SDS011;2932;52.400;9.558;2023-06-24T13:47:53;3.08;;;2.78;;
5811;SDS011;2932;52.400;9.558;2023-06-24T13:50:20;4.82;;;3.38;;
5811;SDS011;2932;52.400;9.558;2023-06-24T13:52:45;4.05;;;3.38;;
5811;SDS011;2932;52.400;9.558;2023-06-24T13:55:11;4.50;;;3.17;;
5811;SDS011;2932;52.400;9.558;2023-06-24T13:57:36;6.18;;;3.42;;
5811;SDS011;2932;52.400;9.558;2023-06-24T14:00:02;3.83;;;3.22;;
5811;SDS011;2932;52.400;9.558;2023-06-24T14:02:27;3.72;;;3.40;;
5811;SDS011;2932;52.400;9.558;2023-06-24T14:04:53;4.30;;;3.78;;
5811;SDS011;2932;52.400;9.558;2023-06-24T14:07:18;3.50;;;3.20;;
5811;SDS011;2932;52.400;9.558;2023-06-24T14:09:43;3.80;;;3.08;;
5811;SDS011;2932;52.400;9.558;2023-06-24T14:12:09;3.67;;;2.78;;
5811;SDS011;2932;52.400;9.558;2023-06-24T14:14:35;3.13;;;2.90;;
5811;SDS011;2932;52.400;9.558;2023-06-24T14:17:05;3.30;;;3.00;;
5811;SDS011;2932;52.400;9.558;2023-06-24T14:19:34;5.25;;;3.33;;
5811;SDS011;2932;52.400;9.558;2023-06-24T14:22:00;4.03;;;3.10;;
5811;SDS011;2932;52.400;9.558;2023-06-24T14:24:25;4.03;;;2.92;;
5811;SDS011;2932;52.400;9.558;2023-06-24T14:26:51;4.00;;;3.40;;
5811;SDS011;2932;52.400;9.558;2023-06-24T14:29:16;4.05;;;3.33;;
5811;SDS011;2932;52.400;9.558;2023-06-24T14:31:42;3.80;;;3.13;;
5811;SDS011;2932;52.400;9.558;2023-06-24T14:34:07;2.83;;;2.63;;
5811;SDS011;2932;52.400;9.558;2023-06-24T14:36:32;5.10;;;2.70;;
5811;SDS011;2932;52.400;9.558;2023-06-24T14:38:58;3.25;;;2.95;;
5811;SDS011;2932;52.400;9.558;2023-06-24T14:41:24;3.13;;;2.83;;
5811;SDS011;2932;52.400;9.558;2023-06-24T14:43:49;4.18;;;3.20;;
5811;SDS011;2932;52.400;9.558;2023-06-24T14:46:14;3.33;;;2.90;;
5811;SDS011;2932;52.400;9.558;2023-06-24T14:48:40;4.50;;;3.00;;
5811;SDS011;2932;52.400;9.558;2023-06-24T14:51:05;3.80;;;3.40;;
5811;SDS011;2932;52.400;9.558;2023-06-24T14:53:31;3.35;;;3.10;;
5811;SDS011;2932;52.400;9.558;2023-06-24T14:55:56;3.92;;;3.20;;
5811;SDS011;2932;52.400;9.558;2023-06-24T14:58:21;3.47;;;3.10;;
5811;SDS011;2932;52.400;9.558;2023-06-24T15:00:47;4.28;;;3.42;;
5811;SDS011;2932;52.400;9.558;2023-06-24T15:03:12;3.22;;;2.92;;
5811;SDS011;2932;52.400;9.558;2023-06-24T15:05:38;4.57;;;3.22;;
5811;SDS011;2932;52.400;9.558;2023-06-24T15:08:04;4.70;;;3.42;;
5811;SDS011;2932;52.400;9.558;2023-06-24T15:10:29;3.80;;;3.40;;
5811;SDS011;2932;52.400;9.558;2023-06-24T15:12:55;4.93;;;3.60;;
5811;SDS011;2932;52.400;9.558;2023-06-24T15:15:20;4.15;;;3.75;;
5811;SDS011;2932;52.400;9.558;2023-06-24T15:17:46;4.07;;;3.05;;
5811;SDS011;2932;52.400;9.558;2023-06-24T15:20:11;4.80;;;3.33;;
5811;SDS011;2932;52.400;9.558;2023-06-24T15:22:37;4.13;;;3.10;;
5811;SDS011;2932;52.400;9.558;2023-06-24T15:25:03;3.50;;;3.20;;
5811;SDS011;2932;52.400;9.558;2023-06-24T15:27:29;6.90;;;3.30;;
5811;SDS011;2932;52.400;9.558;2023-06-24T15:29:54;3.92;;;3.63;;